GSVT2: Red River, Gainesville, TX

                                SHEF ID:       GSVT2     Red River near Gainesville, TX
STATION TYPE:
Regulating: Stage = 25.00, Flow = 54054

PRECIP STAGE RIV-FLOW BAT-LOAD
in ft cfs volt
Ccp-Rev Ccp-Rev Ccp-Rev Ccp-Rev
(America/Chicago)
05/05 00:00 0.00 5.72 814 12.41
05/05 01:00 0.00 5.71 807 12.41
05/05 02:00 0.00 5.70 800 12.41
05/05 03:00 0.00 5.65 767 12.41
05/05 04:00 0.00 5.67 780 12.41
05/05 05:00 0.00 5.67 780 12.41
05/05 06:00 0.00 5.65 767 12.41
05/05 07:00 0.00 5.64 761 12.41
05/05 08:00 0.00 5.64 761 12.41
05/05 09:00 0.00 5.63 754 12.97
05/05 10:00 0.00 5.60 735 13.29
05/05 11:00 0.00 5.61 741 13.29
05/05 12:00 0.00 5.60 735 13.29
05/05 13:00 0.00 5.57 716 13.29
05/05 14:00 0.00 5.58 722 13.29
05/05 15:00 0.00 5.54 698 13.29
05/05 16:00 0.00 5.50 669 13.29
05/05 17:00 0.00 5.53 691 13.21
05/05 18:00 0.00 5.51 676 13.21
05/05 19:00 0.00 5.52 683 13.21
05/05 20:00 0.00 5.52 683 13.05
05/05 21:00 0.00 5.52 683 12.65
05/05 22:00 0.00 5.53 691 12.49
05/05 23:00 0.00 5.52 683 12.49
Data processed at Wed 06May2026 04:32 GMT

NOTICE: If you are parsing this page

Please convert to using our Data API. Starting early 2026 we will be migrating to: https://water.usace.army.mil with modern pages rendered in JavaScript. When this migration completes you will no longer be able to scrape this page! CWMSDataAPI (CDA)

Timeseries IDs (TSIDs)

TSIDs used from left to right in the data table
GAIN.Precip-Inc.Total.1Hour.1Hour.Ccp-Rev
GAIN.Stage.Inst.1Hour.0.Ccp-Rev
GAIN.Flow.Inst.1Hour.0.Ccp-Rev
GAIN.Volt-Battery Load.Inst.1Hour.0.Ccp-Rev

                            

All information presented herein is the property of the government of the United States of America and may be revised or deleted at any time without prior notice. Dissemination of this information without the expressed written consent of the Public Affairs Office, Tulsa District U.S. Army Corps of Engineers is strictly prohibited. These data are gathered electronically and, as presented, have NOT undergone any form of quality control. These data are NOT guaranteed to be valid or correct.